sensor_id;sensor_type;location;lat;lon;timestamp;P1;durP1;ratioP1;P2;durP2;ratioP2
51836;SDS011;38941;53.254;6.600;2023-07-30T00:00:28;16.58;;;4.07;;
51836;SDS011;38941;53.254;6.600;2023-07-30T00:02:29;17.77;;;4.00;;
51836;SDS011;38941;53.254;6.600;2023-07-30T00:04:30;16.38;;;4.25;;
51836;SDS011;38941;53.254;6.600;2023-07-30T00:06:30;15.07;;;3.83;;
51836;SDS011;38941;53.254;6.600;2023-07-30T00:08:31;12.27;;;3.25;;
51836;SDS011;38941;53.254;6.600;2023-07-30T00:10:32;25.08;;;3.97;;
51836;SDS011;38941;53.254;6.600;2023-07-30T00:12:32;16.65;;;4.07;;
51836;SDS011;38941;53.254;6.600;2023-07-30T00:14:33;15.73;;;4.25;;
51836;SDS011;38941;53.254;6.600;2023-07-30T00:16:34;21.85;;;4.25;;
51836;SDS011;38941;53.254;6.600;2023-07-30T00:18:35;20.10;;;4.07;;
51836;SDS011;38941;53.254;6.600;2023-07-30T00:20:36;28.88;;;4.45;;
51836;SDS011;38941;53.254;6.600;2023-07-30T00:22:36;20.73;;;5.15;;
51836;SDS011;38941;53.254;6.600;2023-07-30T00:24:37;18.83;;;4.25;;
51836;SDS011;38941;53.254;6.600;2023-07-30T00:26:38;17.13;;;3.63;;
51836;SDS011;38941;53.254;6.600;2023-07-30T00:28:39;16.05;;;4.78;;
51836;SDS011;38941;53.254;6.600;2023-07-30T00:30:39;18.90;;;5.75;;
51836;SDS011;38941;53.254;6.600;2023-07-30T00:32:40;17.02;;;4.50;;
51836;SDS011;38941;53.254;6.600;2023-07-30T00:34:43;19.65;;;4.72;;
51836;SDS011;38941;53.254;6.600;2023-07-30T00:36:44;19.92;;;4.93;;
51836;SDS011;38941;53.254;6.600;2023-07-30T00:38:46;20.65;;;4.03;;
51836;SDS011;38941;53.254;6.600;2023-07-30T00:40:47;17.58;;;4.15;;
51836;SDS011;38941;53.254;6.600;2023-07-30T00:42:47;23.65;;;5.15;;
51836;SDS011;38941;53.254;6.600;2023-07-30T00:44:48;16.98;;;4.80;;
51836;SDS011;38941;53.254;6.600;2023-07-30T00:46:49;18.20;;;4.18;;
51836;SDS011;38941;53.254;6.600;2023-07-30T00:48:51;15.23;;;5.07;;
51836;SDS011;38941;53.254;6.600;2023-07-30T00:50:52;22.40;;;4.80;;
51836;SDS011;38941;53.254;6.600;2023-07-30T00:52:53;18.17;;;4.20;;
51836;SDS011;38941;53.254;6.600;2023-07-30T00:54:54;22.25;;;6.18;;
51836;SDS011;38941;53.254;6.600;2023-07-30T00:56:57;13.27;;;4.25;;
51836;SDS011;38941;53.254;6.600;2023-07-30T00:58:58;15.88;;;3.83;;
51836;SDS011;38941;53.254;6.600;2023-07-30T01:00:58;16.98;;;3.80;;
51836;SDS011;38941;53.254;6.600;2023-07-30T01:02:59;18.85;;;4.68;;
51836;SDS011;38941;53.254;6.600;2023-07-30T01:05:00;18.02;;;4.70;;
51836;SDS011;38941;53.254;6.600;2023-07-30T01:07:03;26.38;;;5.90;;
51836;SDS011;38941;53.254;6.600;2023-07-30T01:09:05;25.45;;;4.88;;
51836;SDS011;38941;53.254;6.600;2023-07-30T01:11:06;22.83;;;5.03;;
51836;SDS011;38941;53.254;6.600;2023-07-30T01:13:09;20.50;;;4.22;;
51836;SDS011;38941;53.254;6.600;2023-07-30T01:15:11;22.40;;;5.30;;
51836;SDS011;38941;53.254;6.600;2023-07-30T01:17:12;14.85;;;3.53;;
51836;SDS011;38941;53.254;6.600;2023-07-30T01:19:13;19.90;;;4.40;;
51836;SDS011;38941;53.254;6.600;2023-07-30T01:21:14;22.63;;;3.85;;
51836;SDS011;38941;53.254;6.600;2023-07-30T01:23:15;19.02;;;4.57;;
51836;SDS011;38941;53.254;6.600;2023-07-30T01:25:16;21.17;;;5.57;;
51836;SDS011;38941;53.254;6.600;2023-07-30T01:27:22;13.75;;;3.42;;
51836;SDS011;38941;53.254;6.600;2023-07-30T01:29:27;18.50;;;4.95;;
51836;SDS011;38941;53.254;6.600;2023-07-30T01:31:33;13.80;;;3.75;;
51836;SDS011;38941;53.254;6.600;2023-07-30T01:33:35;20.50;;;4.22;;
51836;SDS011;38941;53.254;6.600;2023-07-30T01:35:38;13.57;;;3.97;;
51836;SDS011;38941;53.254;6.600;2023-07-30T01:37:40;12.38;;;3.40;;
51836;SDS011;38941;53.254;6.600;2023-07-30T01:39:42;19.70;;;3.90;;
51836;SDS011;38941;53.254;6.600;2023-07-30T01:41:45;18.23;;;4.30;;
51836;SDS011;38941;53.254;6.600;2023-07-30T01:43:46;13.63;;;3.78;;
51836;SDS011;38941;53.254;6.600;2023-07-30T01:45:47;16.88;;;4.20;;
51836;SDS011;38941;53.254;6.600;2023-07-30T01:47:47;12.70;;;4.03;;
51836;SDS011;38941;53.254;6.600;2023-07-30T01:49:48;17.20;;;3.88;;
51836;SDS011;38941;53.254;6.600;2023-07-30T01:51:49;32.30;;;4.25;;
51836;SDS011;38941;53.254;6.600;2023-07-30T01:53:49;17.58;;;3.47;;
51836;SDS011;38941;53.254;6.600;2023-07-30T01:55:50;17.35;;;4.57;;
51836;SDS011;38941;53.254;6.600;2023-07-30T01:57:51;14.10;;;3.60;;
51836;SDS011;38941;53.254;6.600;2023-07-30T01:59:52;12.05;;;3.20;;
51836;SDS011;38941;53.254;6.600;2023-07-30T02:01:53;14.98;;;4.05;;
51836;SDS011;38941;53.254;6.600;2023-07-30T02:03:54;19.98;;;4.05;;
51836;SDS011;38941;53.254;6.600;2023-07-30T02:05:54;21.15;;;4.80;;
51836;SDS011;38941;53.254;6.600;2023-07-30T02:07:55;21.20;;;4.30;;
51836;SDS011;38941;53.254;6.600;2023-07-30T02:09:56;20.98;;;4.57;;
51836;SDS011;38941;53.254;6.600;2023-07-30T02:11:57;17.55;;;4.40;;
51836;SDS011;38941;53.254;6.600;2023-07-30T02:13:57;16.65;;;3.75;;
51836;SDS011;38941;53.254;6.600;2023-07-30T02:15:58;12.50;;;3.65;;
51836;SDS011;38941;53.254;6.600;2023-07-30T02:17:58;16.02;;;4.18;;
51836;SDS011;38941;53.254;6.600;2023-07-30T02:19:59;19.58;;;3.55;;
51836;SDS011;38941;53.254;6.600;2023-07-30T02:22:00;16.48;;;4.10;;
51836;SDS011;38941;53.254;6.600;2023-07-30T02:24:00;24.75;;;3.85;;
51836;SDS011;38941;53.254;6.600;2023-07-30T02:26:01;22.13;;;4.07;;
51836;SDS011;38941;53.254;6.600;2023-07-30T02:28:02;17.55;;;3.33;;
51836;SDS011;38941;53.254;6.600;2023-07-30T02:30:03;18.15;;;4.03;;
51836;SDS011;38941;53.254;6.600;2023-07-30T02:32:04;15.27;;;3.60;;
51836;SDS011;38941;53.254;6.600;2023-07-30T02:34:06;20.65;;;3.42;;
51836;SDS011;38941;53.254;6.600;2023-07-30T02:36:09;19.55;;;3.47;;
51836;SDS011;38941;53.254;6.600;2023-07-30T02:38:09;19.27;;;3.85;;
51836;SDS011;38941;53.254;6.600;2023-07-30T02:40:10;18.80;;;3.65;;
51836;SDS011;38941;53.254;6.600;2023-07-30T02:42:11;16.55;;;3.17;;
51836;SDS011;38941;53.254;6.600;2023-07-30T02:44:12;16.35;;;3.28;;
51836;SDS011;38941;53.254;6.600;2023-07-30T02:46:13;18.50;;;3.38;;
51836;SDS011;38941;53.254;6.600;2023-07-30T02:48:14;19.20;;;3.92;;
51836;SDS011;38941;53.254;6.600;2023-07-30T02:50:15;18.45;;;4.38;;
51836;SDS011;38941;53.254;6.600;2023-07-30T02:52:15;15.10;;;3.95;;
51836;SDS011;38941;53.254;6.600;2023-07-30T02:54:16;28.17;;;4.18;;
51836;SDS011;38941;53.254;6.600;2023-07-30T02:56:17;28.08;;;4.70;;
51836;SDS011;38941;53.254;6.600;2023-07-30T02:58:17;22.83;;;4.85;;
51836;SDS011;38941;53.254;6.600;2023-07-30T03:00:18;20.92;;;3.88;;
51836;SDS011;38941;53.254;6.600;2023-07-30T03:02:19;19.33;;;3.72;;
51836;SDS011;38941;53.254;6.600;2023-07-30T03:04:19;16.58;;;3.55;;
51836;SDS011;38941;53.254;6.600;2023-07-30T03:06:20;24.98;;;4.20;;
51836;SDS011;38941;53.254;6.600;2023-07-30T03:08:21;18.38;;;3.95;;
51836;SDS011;38941;53.254;6.600;2023-07-30T03:10:21;16.42;;;4.00;;
51836;SDS011;38941;53.254;6.600;2023-07-30T03:12:23;13.32;;;3.17;;
51836;SDS011;38941;53.254;6.600;2023-07-30T03:14:24;13.57;;;3.70;;
51836;SDS011;38941;53.254;6.600;2023-07-30T03:16:25;15.68;;;3.90;;
51836;SDS011;38941;53.254;6.600;2023-07-30T03:18:26;14.85;;;4.28;;
51836;SDS011;38941;53.254;6.600;2023-07-30T03:20:26;22.63;;;4.45;;
51836;SDS011;38941;53.254;6.600;2023-07-30T03:22:27;21.80;;;3.42;;
51836;SDS011;38941;53.254;6.600;2023-07-30T03:24:28;23.13;;;3.50;;
51836;SDS011;38941;53.254;6.600;2023-07-30T03:26:28;21.70;;;3.95;;
51836;SDS011;38941;53.254;6.600;2023-07-30T03:28:29;24.70;;;3.75;;
51836;SDS011;38941;53.254;6.600;2023-07-30T03:30:29;18.88;;;3.70;;
51836;SDS011;38941;53.254;6.600;2023-07-30T03:32:30;20.58;;;4.47;;
51836;SDS011;38941;53.254;6.600;2023-07-30T03:34:31;24.83;;;4.15;;
51836;SDS011;38941;53.254;6.600;2023-07-30T03:36:32;22.02;;;4.20;;
51836;SDS011;38941;53.254;6.600;2023-07-30T03:38:32;20.70;;;3.83;;
51836;SDS011;38941;53.254;6.600;2023-07-30T03:40:33;18.63;;;3.28;;
51836;SDS011;38941;53.254;6.600;2023-07-30T03:42:34;18.23;;;3.28;;
51836;SDS011;38941;53.254;6.600;2023-07-30T03:44:36;17.77;;;2.90;;
51836;SDS011;38941;53.254;6.600;2023-07-30T03:46:36;15.00;;;3.63;;
51836;SDS011;38941;53.254;6.600;2023-07-30T03:48:37;21.95;;;4.15;;
51836;SDS011;38941;53.254;6.600;2023-07-30T03:50:38;17.77;;;3.80;;
51836;SDS011;38941;53.254;6.600;2023-07-30T03:52:39;20.52;;;4.93;;
51836;SDS011;38941;53.254;6.600;2023-07-30T03:54:39;11.63;;;3.88;;
51836;SDS011;38941;53.254;6.600;2023-07-30T03:56:41;17.67;;;3.35;;
51836;SDS011;38941;53.254;6.600;2023-07-30T03:58:42;17.17;;;3.85;;
51836;SDS011;38941;53.254;6.600;2023-07-30T04:00:42;19.45;;;3.45;;
51836;SDS011;38941;53.254;6.600;2023-07-30T04:02:43;18.77;;;3.95;;
51836;SDS011;38941;53.254;6.600;2023-07-30T04:04:44;21.40;;;3.38;;
51836;SDS011;38941;53.254;6.600;2023-07-30T04:06:46;19.13;;;3.50;;
51836;SDS011;38941;53.254;6.600;2023-07-30T04:08:46;17.40;;;2.95;;
51836;SDS011;38941;53.254;6.600;2023-07-30T04:10:47;13.80;;;3.15;;
51836;SDS011;38941;53.254;6.600;2023-07-30T04:12:51;14.93;;;2.95;;
51836;SDS011;38941;53.254;6.600;2023-07-30T04:14:51;21.48;;;4.25;;
51836;SDS011;38941;53.254;6.600;2023-07-30T04:16:52;15.15;;;3.47;;
51836;SDS011;38941;53.254;6.600;2023-07-30T04:18:53;14.90;;;3.75;;
51836;SDS011;38941;53.254;6.600;2023-07-30T04:20:56;13.90;;;4.22;;
51836;SDS011;38941;53.254;6.600;2023-07-30T04:22:57;22.80;;;3.88;;
51836;SDS011;38941;53.254;6.600;2023-07-30T04:24:58;26.45;;;4.68;;
51836;SDS011;38941;53.254;6.600;2023-07-30T04:27:00;19.35;;;4.57;;
51836;SDS011;38941;53.254;6.600;2023-07-30T04:29:01;14.15;;;2.90;;
51836;SDS011;38941;53.254;6.600;2023-07-30T04:31:01;17.88;;;3.03;;
51836;SDS011;38941;53.254;6.600;2023-07-30T04:33:02;19.60;;;3.30;;
51836;SDS011;38941;53.254;6.600;2023-07-30T04:35:03;15.10;;;3.33;;
51836;SDS011;38941;53.254;6.600;2023-07-30T04:37:04;23.85;;;5.18;;
51836;SDS011;38941;53.254;6.600;2023-07-30T04:39:04;16.67;;;3.40;;
51836;SDS011;38941;53.254;6.600;2023-07-30T04:41:05;13.02;;;3.03;;
51836;SDS011;38941;53.254;6.600;2023-07-30T04:43:07;17.08;;;4.30;;
51836;SDS011;38941;53.254;6.600;2023-07-30T04:45:08;20.55;;;4.07;;
51836;SDS011;38941;53.254;6.600;2023-07-30T04:47:09;16.88;;;4.30;;
51836;SDS011;38941;53.254;6.600;2023-07-30T04:49:10;19.45;;;3.42;;
51836;SDS011;38941;53.254;6.600;2023-07-30T04:51:10;14.93;;;2.25;;
51836;SDS011;38941;53.254;6.600;2023-07-30T04:53:11;15.50;;;3.00;;
51836;SDS011;38941;53.254;6.600;2023-07-30T04:55:12;15.40;;;3.35;;
51836;SDS011;38941;53.254;6.600;2023-07-30T04:57:12;11.70;;;3.53;;
51836;SDS011;38941;53.254;6.600;2023-07-30T04:59:13;16.17;;;4.40;;
51836;SDS011;38941;53.254;6.600;2023-07-30T05:01:14;15.23;;;2.83;;
51836;SDS011;38941;53.254;6.600;2023-07-30T05:03:15;13.90;;;2.78;;
51836;SDS011;38941;53.254;6.600;2023-07-30T05:05:16;22.75;;;3.28;;
51836;SDS011;38941;53.254;6.600;2023-07-30T05:07:16;15.98;;;3.45;;
51836;SDS011;38941;53.254;6.600;2023-07-30T05:09:17;13.90;;;2.78;;
51836;SDS011;38941;53.254;6.600;2023-07-30T05:11:18;8.75;;;2.63;;
51836;SDS011;38941;53.254;6.600;2023-07-30T05:13:18;15.90;;;2.60;;
51836;SDS011;38941;53.254;6.600;2023-07-30T05:15:19;21.48;;;3.17;;
51836;SDS011;38941;53.254;6.600;2023-07-30T05:17:20;12.73;;;2.53;;
51836;SDS011;38941;53.254;6.600;2023-07-30T05:19:21;15.35;;;2.72;;
51836;SDS011;38941;53.254;6.600;2023-07-30T05:21:21;15.23;;;2.63;;
51836;SDS011;38941;53.254;6.600;2023-07-30T05:23:22;16.42;;;2.85;;
51836;SDS011;38941;53.254;6.600;2023-07-30T05:25:23;12.30;;;2.72;;
51836;SDS011;38941;53.254;6.600;2023-07-30T05:27:24;10.52;;;2.90;;
51836;SDS011;38941;53.254;6.600;2023-07-30T05:29:24;17.98;;;3.13;;
51836;SDS011;38941;53.254;6.600;2023-07-30T05:31:25;10.30;;;3.58;;
51836;SDS011;38941;53.254;6.600;2023-07-30T05:33:27;9.73;;;2.55;;
51836;SDS011;38941;53.254;6.600;2023-07-30T05:35:28;14.98;;;2.22;;
51836;SDS011;38941;53.254;6.600;2023-07-30T05:37:29;17.38;;;3.25;;
51836;SDS011;38941;53.254;6.600;2023-07-30T05:39:29;9.40;;;1.85;;
51836;SDS011;38941;53.254;6.600;2023-07-30T05:41:30;8.98;;;2.08;;
51836;SDS011;38941;53.254;6.600;2023-07-30T05:43:31;11.75;;;2.47;;
51836;SDS011;38941;53.254;6.600;2023-07-30T05:45:33;12.55;;;2.17;;
51836;SDS011;38941;53.254;6.600;2023-07-30T05:47:34;12.32;;;2.70;;
51836;SDS011;38941;53.254;6.600;2023-07-30T05:49:35;10.57;;;2.53;;
51836;SDS011;38941;53.254;6.600;2023-07-30T05:51:36;13.40;;;1.90;;
51836;SDS011;38941;53.254;6.600;2023-07-30T05:53:36;13.95;;;2.67;;
51836;SDS011;38941;53.254;6.600;2023-07-30T05:55:37;11.38;;;2.53;;
51836;SDS011;38941;53.254;6.600;2023-07-30T05:57:38;7.55;;;1.70;;
51836;SDS011;38941;53.254;6.600;2023-07-30T05:59:39;8.02;;;1.73;;
51836;SDS011;38941;53.254;6.600;2023-07-30T06:01:40;12.85;;;2.42;;
51836;SDS011;38941;53.254;6.600;2023-07-30T06:03:41;9.60;;;2.30;;
51836;SDS011;38941;53.254;6.600;2023-07-30T06:05:42;7.07;;;1.65;;
51836;SDS011;38941;53.254;6.600;2023-07-30T06:07:43;9.55;;;1.50;;
51836;SDS011;38941;53.254;6.600;2023-07-30T06:09:44;18.00;;;2.58;;
51836;SDS011;38941;53.254;6.600;2023-07-30T06:11:45;11.38;;;1.80;;
51836;SDS011;38941;53.254;6.600;2023-07-30T06:13:46;11.23;;;1.58;;
51836;SDS011;38941;53.254;6.600;2023-07-30T06:15:47;15.52;;;3.03;;
51836;SDS011;38941;53.254;6.600;2023-07-30T06:17:48;12.80;;;1.88;;
51836;SDS011;38941;53.254;6.600;2023-07-30T06:19:49;14.90;;;3.08;;
51836;SDS011;38941;53.254;6.600;2023-07-30T06:21:50;17.00;;;2.42;;
51836;SDS011;38941;53.254;6.600;2023-07-30T06:23:51;10.45;;;2.08;;
51836;SDS011;38941;53.254;6.600;2023-07-30T06:25:52;12.20;;;1.55;;
51836;SDS011;38941;53.254;6.600;2023-07-30T06:27:52;11.95;;;1.75;;
51836;SDS011;38941;53.254;6.600;2023-07-30T06:29:54;10.13;;;1.70;;
51836;SDS011;38941;53.254;6.600;2023-07-30T06:31:54;8.77;;;2.17;;
51836;SDS011;38941;53.254;6.600;2023-07-30T06:33:55;11.75;;;2.17;;
51836;SDS011;38941;53.254;6.600;2023-07-30T06:35:56;8.55;;;1.90;;
51836;SDS011;38941;53.254;6.600;2023-07-30T06:37:56;8.55;;;1.70;;
51836;SDS011;38941;53.254;6.600;2023-07-30T06:39:57;9.50;;;1.77;;
51836;SDS011;38941;53.254;6.600;2023-07-30T06:41:58;11.77;;;2.17;;
51836;SDS011;38941;53.254;6.600;2023-07-30T06:44:00;6.97;;;1.88;;
51836;SDS011;38941;53.254;6.600;2023-07-30T06:46:00;8.52;;;1.73;;
51836;SDS011;38941;53.254;6.600;2023-07-30T06:48:01;11.48;;;2.25;;
51836;SDS011;38941;53.254;6.600;2023-07-30T06:50:02;8.60;;;2.35;;
51836;SDS011;38941;53.254;6.600;2023-07-30T06:52:04;11.77;;;2.17;;
51836;SDS011;38941;53.254;6.600;2023-07-30T06:54:05;12.00;;;2.45;;
51836;SDS011;38941;53.254;6.600;2023-07-30T06:56:06;11.57;;;2.35;;
51836;SDS011;38941;53.254;6.600;2023-07-30T06:58:06;12.07;;;2.20;;
51836;SDS011;38941;53.254;6.600;2023-07-30T07:00:07;7.00;;;1.85;;
51836;SDS011;38941;53.254;6.600;2023-07-30T07:02:08;12.90;;;2.13;;
51836;SDS011;38941;53.254;6.600;2023-07-30T07:04:09;13.60;;;2.42;;
51836;SDS011;38941;53.254;6.600;2023-07-30T07:06:10;13.10;;;2.28;;
51836;SDS011;38941;53.254;6.600;2023-07-30T07:08:11;8.55;;;2.10;;
51836;SDS011;38941;53.254;6.600;2023-07-30T07:10:12;15.20;;;2.83;;
51836;SDS011;38941;53.254;6.600;2023-07-30T07:12:13;8.90;;;2.17;;
51836;SDS011;38941;53.254;6.600;2023-07-30T07:14:14;10.02;;;2.35;;
51836;SDS011;38941;53.254;6.600;2023-07-30T07:16:14;8.18;;;2.20;;
51836;SDS011;38941;53.254;6.600;2023-07-30T07:18:15;8.13;;;2.25;;
51836;SDS011;38941;53.254;6.600;2023-07-30T07:20:16;11.32;;;1.80;;
51836;SDS011;38941;53.254;6.600;2023-07-30T07:22:16;15.13;;;2.72;;
51836;SDS011;38941;53.254;6.600;2023-07-30T07:24:18;8.95;;;2.13;;
51836;SDS011;38941;53.254;6.600;2023-07-30T07:26:19;8.70;;;2.65;;
51836;SDS011;38941;53.254;6.600;2023-07-30T07:28:19;6.68;;;1.58;;
51836;SDS011;38941;53.254;6.600;2023-07-30T07:30:20;10.70;;;2.40;;
51836;SDS011;38941;53.254;6.600;2023-07-30T07:32:21;16.25;;;2.80;;
51836;SDS011;38941;53.254;6.600;2023-07-30T07:34:22;7.05;;;1.60;;
51836;SDS011;38941;53.254;6.600;2023-07-30T07:36:22;8.70;;;2.90;;
51836;SDS011;38941;53.254;6.600;2023-07-30T07:38:23;8.13;;;2.47;;
51836;SDS011;38941;53.254;6.600;2023-07-30T07:40:24;6.63;;;1.45;;
51836;SDS011;38941;53.254;6.600;2023-07-30T07:42:25;10.98;;;1.80;;
51836;SDS011;38941;53.254;6.600;2023-07-30T07:44:26;7.90;;;1.60;;
51836;SDS011;38941;53.254;6.600;2023-07-30T07:46:27;7.70;;;2.20;;
51836;SDS011;38941;53.254;6.600;2023-07-30T07:48:27;9.02;;;1.50;;
51836;SDS011;38941;53.254;6.600;2023-07-30T07:50:28;6.15;;;1.50;;
51836;SDS011;38941;53.254;6.600;2023-07-30T07:52:29;8.75;;;1.40;;
51836;SDS011;38941;53.254;6.600;2023-07-30T07:54:29;7.50;;;2.20;;
51836;SDS011;38941;53.254;6.600;2023-07-30T07:56:30;8.45;;;2.45;;
51836;SDS011;38941;53.254;6.600;2023-07-30T07:58:31;6.65;;;2.22;;
51836;SDS011;38941;53.254;6.600;2023-07-30T08:00:32;6.55;;;1.08;;
51836;SDS011;38941;53.254;6.600;2023-07-30T08:02:33;7.93;;;1.73;;
51836;SDS011;38941;53.254;6.600;2023-07-30T08:04:34;12.43;;;1.88;;
51836;SDS011;38941;53.254;6.600;2023-07-30T08:06:34;9.18;;;1.92;;
51836;SDS011;38941;53.254;6.600;2023-07-30T08:08:35;7.47;;;1.30;;
51836;SDS011;38941;53.254;6.600;2023-07-30T08:10:39;10.15;;;1.30;;
51836;SDS011;38941;53.254;6.600;2023-07-30T08:12:42;7.82;;;1.67;;
51836;SDS011;38941;53.254;6.600;2023-07-30T08:14:43;8.60;;;1.20;;
51836;SDS011;38941;53.254;6.600;2023-07-30T08:16:44;9.63;;;1.17;;
51836;SDS011;38941;53.254;6.600;2023-07-30T08:18:44;11.43;;;1.27;;
51836;SDS011;38941;53.254;6.600;2023-07-30T08:20:45;8.35;;;1.20;;
51836;SDS011;38941;53.254;6.600;2023-07-30T08:22:46;12.30;;;1.58;;
51836;SDS011;38941;53.254;6.600;2023-07-30T08:24:46;5.70;;;1.05;;
51836;SDS011;38941;53.254;6.600;2023-07-30T08:26:47;10.45;;;1.27;;
51836;SDS011;38941;53.254;6.600;2023-07-30T08:28:48;11.68;;;2.13;;
51836;SDS011;38941;53.254;6.600;2023-07-30T08:30:48;7.10;;;1.35;;
51836;SDS011;38941;53.254;6.600;2023-07-30T08:32:49;8.60;;;1.60;;
51836;SDS011;38941;53.254;6.600;2023-07-30T08:34:51;8.90;;;1.55;;
51836;SDS011;38941;53.254;6.600;2023-07-30T08:36:51;6.30;;;1.70;;
51836;SDS011;38941;53.254;6.600;2023-07-30T08:38:52;10.65;;;2.42;;
51836;SDS011;38941;53.254;6.600;2023-07-30T08:40:53;11.57;;;1.30;;
51836;SDS011;38941;53.254;6.600;2023-07-30T08:42:54;5.30;;;1.02;;
51836;SDS011;38941;53.254;6.600;2023-07-30T08:44:54;11.20;;;1.65;;
51836;SDS011;38941;53.254;6.600;2023-07-30T08:46:55;8.38;;;1.60;;
51836;SDS011;38941;53.254;6.600;2023-07-30T08:48:56;8.40;;;1.52;;
51836;SDS011;38941;53.254;6.600;2023-07-30T08:50:57;8.23;;;1.92;;
51836;SDS011;38941;53.254;6.600;2023-07-30T08:52:59;9.32;;;1.83;;
51836;SDS011;38941;53.254;6.600;2023-07-30T08:55:03;5.13;;;1.35;;
51836;SDS011;38941;53.254;6.600;2023-07-30T08:57:05;8.50;;;1.13;;
51836;SDS011;38941;53.254;6.600;2023-07-30T08:59:07;10.07;;;1.75;;
51836;SDS011;38941;53.254;6.600;2023-07-30T09:01:08;12.40;;;1.85;;
51836;SDS011;38941;53.254;6.600;2023-07-30T09:03:10;15.38;;;1.23;;
51836;SDS011;38941;53.254;6.600;2023-07-30T09:05:16;9.95;;;1.40;;
51836;SDS011;38941;53.254;6.600;2023-07-30T09:07:16;12.82;;;1.70;;
51836;SDS011;38941;53.254;6.600;2023-07-30T09:09:17;6.97;;;1.52;;
51836;SDS011;38941;53.254;6.600;2023-07-30T09:11:18;8.65;;;2.45;;
51836;SDS011;38941;53.254;6.600;2023-07-30T09:13:21;9.20;;;1.65;;
51836;SDS011;38941;53.254;6.600;2023-07-30T09:15:37;6.57;;;1.60;;
51836;SDS011;38941;53.254;6.600;2023-07-30T09:17:38;8.13;;;1.15;;
51836;SDS011;38941;53.254;6.600;2023-07-30T09:19:39;9.75;;;1.27;;
51836;SDS011;38941;53.254;6.600;2023-07-30T09:21:40;8.10;;;1.65;;
51836;SDS011;38941;53.254;6.600;2023-07-30T09:23:44;4.72;;;1.27;;
51836;SDS011;38941;53.254;6.600;2023-07-30T09:25:47;7.90;;;2.45;;
51836;SDS011;38941;53.254;6.600;2023-07-30T09:27:52;5.88;;;0.90;;
51836;SDS011;38941;53.254;6.600;2023-07-30T09:29:54;3.90;;;1.48;;
51836;SDS011;38941;53.254;6.600;2023-07-30T09:31:55;4.15;;;1.05;;
51836;SDS011;38941;53.254;6.600;2023-07-30T09:33:56;7.85;;;1.17;;
51836;SDS011;38941;53.254;6.600;2023-07-30T09:35:57;10.98;;;1.17;;
51836;SDS011;38941;53.254;6.600;2023-07-30T09:38:01;7.03;;;0.95;;
51836;SDS011;38941;53.254;6.600;2023-07-30T09:40:04;12.10;;;1.73;;
51836;SDS011;38941;53.254;6.600;2023-07-30T09:42:09;4.53;;;1.10;;
51836;SDS011;38941;53.254;6.600;2023-07-30T09:44:09;4.80;;;1.00;;
51836;SDS011;38941;53.254;6.600;2023-07-30T09:46:10;7.25;;;1.40;;
51836;SDS011;38941;53.254;6.600;2023-07-30T09:48:11;10.52;;;1.10;;
51836;SDS011;38941;53.254;6.600;2023-07-30T09:50:13;3.65;;;0.95;;
51836;SDS011;38941;53.254;6.600;2023-07-30T09:52:14;5.82;;;1.02;;
51836;SDS011;38941;53.254;6.600;2023-07-30T09:54:16;6.82;;;1.38;;
51836;SDS011;38941;53.254;6.600;2023-07-30T09:56:19;4.22;;;1.27;;
51836;SDS011;38941;53.254;6.600;2023-07-30T09:58:19;1.90;;;0.70;;
51836;SDS011;38941;53.254;6.600;2023-07-30T10:00:21;3.63;;;0.73;;
51836;SDS011;38941;53.254;6.600;2023-07-30T10:02:23;1.42;;;0.60;;
51836;SDS011;38941;53.254;6.600;2023-07-30T10:04:24;7.15;;;0.70;;
51836;SDS011;38941;53.254;6.600;2023-07-30T10:06:28;4.38;;;0.60;;
51836;SDS011;38941;53.254;6.600;2023-07-30T10:08:32;6.10;;;0.93;;
51836;SDS011;38941;53.254;6.600;2023-07-30T10:10:36;3.53;;;0.88;;
51836;SDS011;38941;53.254;6.600;2023-07-30T10:12:37;5.10;;;0.77;;
51836;SDS011;38941;53.254;6.600;2023-07-30T10:14:40;4.53;;;1.23;;
51836;SDS011;38941;53.254;6.600;2023-07-30T10:16:55;4.65;;;0.68;;
51836;SDS011;38941;53.254;6.600;2023-07-30T10:18:58;5.30;;;1.15;;
51836;SDS011;38941;53.254;6.600;2023-07-30T10:20:59;4.60;;;0.85;;
51836;SDS011;38941;53.254;6.600;2023-07-30T10:23:00;10.13;;;1.02;;
51836;SDS011;38941;53.254;6.600;2023-07-30T10:25:04;4.40;;;1.10;;
51836;SDS011;38941;53.254;6.600;2023-07-30T10:27:08;7.75;;;0.90;;
51836;SDS011;38941;53.254;6.600;2023-07-30T10:29:16;8.38;;;1.17;;
51836;SDS011;38941;53.254;6.600;2023-07-30T10:31:20;3.08;;;1.00;;
51836;SDS011;38941;53.254;6.600;2023-07-30T10:33:46;9.27;;;1.88;;
51836;SDS011;38941;53.254;6.600;2023-07-30T10:35:47;3.47;;;0.93;;
51836;SDS011;38941;53.254;6.600;2023-07-30T10:37:47;5.40;;;0.90;;
51836;SDS011;38941;53.254;6.600;2023-07-30T10:39:48;4.22;;;0.88;;
51836;SDS011;38941;53.254;6.600;2023-07-30T10:41:50;5.20;;;1.13;;
51836;SDS011;38941;53.254;6.600;2023-07-30T10:43:51;3.75;;;0.90;;
51836;SDS011;38941;53.254;6.600;2023-07-30T10:45:54;3.67;;;1.17;;
51836;SDS011;38941;53.254;6.600;2023-07-30T10:48:03;6.50;;;1.70;;
51836;SDS011;38941;53.254;6.600;2023-07-30T10:50:04;8.05;;;1.20;;
51836;SDS011;38941;53.254;6.600;2023-07-30T10:52:06;5.18;;;1.15;;
51836;SDS011;38941;53.254;6.600;2023-07-30T10:54:07;5.00;;;1.00;;
51836;SDS011;38941;53.254;6.600;2023-07-30T10:56:09;5.45;;;1.20;;
51836;SDS011;38941;53.254;6.600;2023-07-30T10:58:10;6.53;;;1.00;;
51836;SDS011;38941;53.254;6.600;2023-07-30T11:00:11;4.15;;;1.27;;
51836;SDS011;38941;53.254;6.600;2023-07-30T11:02:12;5.65;;;0.80;;
51836;SDS011;38941;53.254;6.600;2023-07-30T11:04:14;5.93;;;1.30;;
51836;SDS011;38941;53.254;6.600;2023-07-30T11:06:25;4.55;;;1.10;;
51836;SDS011;38941;53.254;6.600;2023-07-30T11:10:44;6.10;;;1.38;;
51836;SDS011;38941;53.254;6.600;2023-07-30T11:12:49;3.35;;;0.73;;
51836;SDS011;38941;53.254;6.600;2023-07-30T11:14:50;4.93;;;0.90;;
51836;SDS011;38941;53.254;6.600;2023-07-30T11:16:52;5.20;;;1.52;;
51836;SDS011;38941;53.254;6.600;2023-07-30T11:18:54;5.68;;;1.40;;
51836;SDS011;38941;53.254;6.600;2023-07-30T11:21:01;4.05;;;0.90;;
51836;SDS011;38941;53.254;6.600;2023-07-30T11:23:18;6.05;;;1.58;;
51836;SDS011;38941;53.254;6.600;2023-07-30T11:25:22;8.07;;;0.73;;
51836;SDS011;38941;53.254;6.600;2023-07-30T11:27:23;5.47;;;1.35;;
51836;SDS011;38941;53.254;6.600;2023-07-30T11:29:24;8.48;;;1.30;;
51836;SDS011;38941;53.254;6.600;2023-07-30T11:31:25;8.23;;;1.13;;
51836;SDS011;38941;53.254;6.600;2023-07-30T11:33:27;7.60;;;1.02;;
51836;SDS011;38941;53.254;6.600;2023-07-30T11:35:28;6.30;;;1.50;;
51836;SDS011;38941;53.254;6.600;2023-07-30T11:37:29;8.50;;;1.30;;
51836;SDS011;38941;53.254;6.600;2023-07-30T11:39:30;4.38;;;0.98;;
51836;SDS011;38941;53.254;6.600;2023-07-30T11:41:31;5.15;;;0.88;;
51836;SDS011;38941;53.254;6.600;2023-07-30T11:43:33;4.75;;;0.85;;
51836;SDS011;38941;53.254;6.600;2023-07-30T11:45:39;7.68;;;0.90;;
51836;SDS011;38941;53.254;6.600;2023-07-30T11:47:40;5.47;;;1.20;;
51836;SDS011;38941;53.254;6.600;2023-07-30T11:49:40;3.75;;;0.80;;
51836;SDS011;38941;53.254;6.600;2023-07-30T11:51:42;7.57;;;1.33;;
51836;SDS011;38941;53.254;6.600;2023-07-30T11:53:43;6.35;;;1.98;;
51836;SDS011;38941;53.254;6.600;2023-07-30T11:55:52;9.68;;;1.20;;
51836;SDS011;38941;53.254;6.600;2023-07-30T11:57:52;7.93;;;1.42;;
51836;SDS011;38941;53.254;6.600;2023-07-30T11:59:53;6.53;;;1.88;;
51836;SDS011;38941;53.254;6.600;2023-07-30T12:01:54;6.03;;;1.10;;
51836;SDS011;38941;53.254;6.600;2023-07-30T12:03:59;5.15;;;0.80;;
51836;SDS011;38941;53.254;6.600;2023-07-30T12:06:04;8.35;;;1.83;;
51836;SDS011;38941;53.254;6.600;2023-07-30T12:08:07;5.82;;;0.70;;